Terminal Aerodrome Forecast
Issued by NWS Melbourne, FL

Current Version | Previous Version | Text Only | Print | Product List | Glossary On
Versions: 1 2 3 4 5 6 7 8 9 10 11 12 13 14
983
FTUS42 KMLB 250540
TAFMLB
TAF
KMLB 250540Z 2506/2606 17005KT P6SM SCT120 SCT250
     FM251300 15007KT P6SM FEW020 SCT250
     FM251800 12012G18KT P6SM VCSH SCT040 SCT100 SCT250
     FM260200 17006KT P6SM FEW040 SCT100 SCT250=

USA.gov is the U.S. government's official web portal to all federal, state and local government web resources and services.